Aviation Digital Data Service (ADDS)

Output produced by METARs form (1930 UTC 18 June 2019)
found at http://www.aviationweather.gov/metar/data/
 
MZBZ 181900Z 11008KT 9999 SCT025 32/26 A2992 Q1013 NOSIG
TAF MZBZ 181500Z 1818/1918 11010KT 9999 SCT024 
     PROB30 
     TEMPO 1906/1918 5000 SHRA BKN015